METAR Data
IDs: Format: Raw Decoded Include TAF

Data at: 2146 UTC 18 Apr 2021

LFPO 182130Z 34004KT CAVOK 08/02 Q1022 NOSIG